Casco, Michigan
Current Conditions -  °F | °C
As of 9:58 PM on Saturday 22 Nov 2014 (Local Time) from KMTC Reporting Station
Overcast Overcast  
Wind Chill: 43°   Ceiling: 2400
Heat Index: 48°   Visibility: 10mi
Dew Point: 47°   Wind: 10mph
Humidity: 97%   Direction: 220°SW
Pressure: 29.92"   Gusts: NA
Location:  42.75°N, 82.67°W
Report Text: KMTC 230258Z AUTO 22009KT 10SM OVC024 09/08 A2992 RMK AO2 SLP140 60000 T00870083 55001
Loading
Personal Weather Stations






























Interactive Weather Map New forecast layout! Learn more

10-Day Weather Forecast

Advertisements
Track Severe Weather on mobile